Time;durP1;ratioP1;P1;durP2;ratioP2;P2;SDS_P1;SDS_P2;PMS_P1;PMS_P2;Temp;Humidity;BMP_temperature;BMP_pressure;BME280_temperature;BME280_humidity;BME280_pressure;Samples;Min_cycle;Max_cycle;Signal;HPM_P1;HPM_P2
2021/07/27 00:07:05;;;;;;;1.90;1.42;;;23.90;66.40;;;;;;20805525;28;20033;-75
2021/07/27 00:17:05;;;;;;;2.63;1.60;;;23.90;66.50;;;;;;20788957;28;20033;-76
2021/07/27 00:27:06;;;;;;;3.15;2.08;;;24.00;66.50;;;;;;20788525;28;20060;-75
2021/07/27 00:37:16;;;;;;;2.10;1.40;;;23.80;66.50;;;;;;20803974;28;20096;-75
2021/07/27 00:47:16;;;;;;;2.15;1.80;;;23.80;66.50;;;;;;20774479;28;20060;-75
2021/07/27 00:57:17;;;;;;;1.88;1.30;;;23.80;66.60;;;;;;20819821;28;20072;-75
2021/07/27 01:07:20;;;;;;;2.97;1.73;;;23.80;66.60;;;;;;20819276;28;20037;-75
2021/07/27 01:17:20;;;;;;;2.10;1.52;;;23.80;66.60;;;;;;20770141;28;20475;-75
2021/07/27 01:37:47;;;;;;;2.88;1.58;;;23.70;66.60;;;;;;20806502;28;20472;-75
2021/07/27 01:47:48;;;;;;;3.13;1.83;;;23.70;66.60;;;;;;20799950;28;20076;-76
2021/07/27 01:57:49;;;;;;;2.30;1.63;;;23.70;66.60;;;;;;20782419;28;20459;-76
2021/07/27 02:07:52;;;;;;;3.10;1.88;;;23.70;66.60;;;;;;20797798;28;20750;-76
2021/07/27 02:17:52;;;;;;;3.00;1.85;;;23.70;66.60;;;;;;20813785;28;20037;-75
2021/07/27 02:27:53;;;;;;;2.35;1.48;;;23.70;66.60;;;;;;20830268;28;20063;-75
2021/07/27 02:37:53;;;;;;;2.10;1.38;;;23.70;66.60;;;;;;20795438;28;20651;-75
2021/07/27 02:47:54;;;;;;;2.30;1.70;;;23.70;66.60;;;;;;20794894;28;20128;-75
2021/07/27 02:57:55;;;;;;;2.78;1.50;;;23.70;66.60;;;;;;20777124;28;20045;-75
2021/07/27 03:07:58;;;;;;;3.10;1.75;;;23.70;66.70;;;;;;20777341;28;20120;-75
2021/07/27 03:17:59;;;;;;;1.85;1.30;;;23.70;66.70;;;;;;20794228;28;20049;-75
2021/07/27 03:27:59;;;;;;;2.13;1.45;;;23.70;66.70;;;;;;20769719;28;20036;-74
2021/07/27 03:38:03;;;;;;;2.88;2.03;;;23.60;66.70;;;;;;20833816;28;20116;-76
2021/07/27 03:48:04;;;;;;;1.87;1.50;;;23.60;66.70;;;;;;20773807;28;20060;-75
2021/07/27 03:58:05;;;;;;;2.80;1.65;;;23.60;66.70;;;;;;20798993;28;20120;-76
2021/07/27 04:08:05;;;;;;;2.28;1.50;;;23.60;66.70;;;;;;20707426;28;20068;-76
2021/07/27 04:18:06;;;;;;;3.03;1.70;;;23.60;66.70;;;;;;20721435;28;20037;-76
2021/07/27 04:28:06;;;;;;;2.35;1.20;;;23.70;66.80;;;;;;20848394;28;20294;-76
2021/07/27 04:38:07;;;;;;;1.80;1.38;;;23.60;66.70;;;;;;20797072;28;20065;-76
2021/07/27 04:48:08;;;;;;;2.30;1.42;;;23.50;66.70;;;;;;20773867;28;20124;-77
2021/07/27 04:58:08;;;;;;;2.20;1.35;;;23.50;66.70;;;;;;20757541;28;20057;-77
2021/07/27 05:08:09;;;;;;;1.75;1.35;;;23.50;66.70;;;;;;20770674;28;20061;-76
2021/07/27 05:18:09;;;;;;;1.63;1.23;;;23.50;66.70;;;;;;20809491;28;20116;-76
2021/07/27 05:28:10;;;;;;;2.20;1.40;;;23.50;66.70;;;;;;20801018;28;20383;-77
2021/07/27 05:38:11;;;;;;;3.00;1.50;;;23.50;66.70;;;;;;20817726;28;20040;-76
2021/07/27 05:48:11;;;;;;;2.30;1.38;;;23.50;66.70;;;;;;20815795;28;20459;-76
2021/07/27 05:58:12;;;;;;;2.47;1.52;;;23.50;66.70;;;;;;20815467;28;20037;-74
2021/07/27 06:08:12;;;;;;;1.80;1.17;;;23.60;66.80;;;;;;20798180;28;20064;-74
2021/07/27 06:18:13;;;;;;;2.10;1.52;;;23.60;66.80;;;;;;20831341;28;20040;-74
2021/07/27 06:28:14;;;;;;;2.10;1.42;;;23.60;66.80;;;;;;20795420;28;20045;-72
2021/07/27 06:38:14;;;;;;;1.65;1.17;;;23.60;66.70;;;;;;20770188;28;20064;-74
2021/07/27 06:48:15;;;;;;;2.10;1.50;;;23.60;66.70;;;;;;20776005;28;20037;-73
2021/07/27 06:58:15;;;;;;;2.05;1.50;;;23.70;66.70;;;;;;20791259;28;20121;-73
2021/07/27 07:08:16;;;;;;;2.03;1.27;;;23.70;66.60;;;;;;20759889;28;20056;-73
2021/07/27 07:18:17;;;;;;;2.23;1.60;;;23.60;66.60;;;;;;20759497;28;20037;-73
2021/07/27 07:28:17;;;;;;;2.43;1.47;;;23.70;66.60;;;;;;20791168;28;20322;-73
2021/07/27 07:38:18;;;;;;;3.35;1.63;;;23.70;66.60;;;;;;20806017;28;20303;-73
2021/07/27 07:48:20;;;;;;;2.45;1.70;;;23.70;66.50;;;;;;20789778;28;20037;-74
2021/07/27 07:58:20;;;;;;;3.00;2.13;;;23.70;66.50;;;;;;20805648;28;20038;-73
2021/07/27 08:08:21;;;;;;;4.07;1.70;;;23.70;66.50;;;;;;20772518;28;20040;-73
2021/07/27 08:18:21;;;;;;;2.35;1.60;;;23.70;66.50;;;;;;20804817;28;20098;-73
2021/07/27 08:28:22;;;;;;;2.42;1.58;;;23.70;67.20;;;;;;20771797;28;20475;-73
2021/07/27 08:38:23;;;;;;;2.55;2.00;;;23.70;66.50;;;;;;20754503;28;20041;-73
2021/07/27 08:48:24;;;;;;;2.10;1.70;;;23.70;66.60;;;;;;20786567;28;20120;-79
2021/07/27 08:58:24;;;;;;;2.47;1.73;;;23.70;66.60;;;;;;20785899;28;20042;-76
2021/07/27 09:08:28;;;;;;;2.00;1.65;;;23.70;66.50;;;;;;20802114;28;20075;-74
2021/07/27 09:18:29;;;;;;;3.22;2.20;;;23.70;66.50;;;;;;20767908;28;20051;-74
2021/07/27 09:28:30;;;;;;;2.33;1.90;;;23.70;66.40;;;;;;20767337;28;20079;-73
2021/07/27 09:38:33;;;;;;;3.83;2.25;;;23.70;66.40;;;;;;20815535;28;20041;-74
2021/07/27 09:48:36;;;;;;;2.63;2.30;;;23.70;66.30;;;;;;21098870;22;20145;-73
2021/07/27 09:58:37;;;;;;;2.40;1.80;;;23.70;66.10;;;;;;20717191;28;20491;-74
2021/07/27 10:08:37;;;;;;;3.70;2.42;;;23.70;66.10;;;;;;20716377;28;20052;-74
2021/07/27 10:18:38;;;;;;;3.13;2.50;;;23.70;66.10;;;;;;20699868;28;20530;-74
2021/07/27 10:28:38;;;;;;;3.03;2.38;;;23.70;66.10;;;;;;20731290;28;20052;-74
2021/07/27 10:38:39;;;;;;;2.92;2.00;;;23.70;66.00;;;;;;20730594;28;20038;-75
2021/07/27 10:48:40;;;;;;;2.83;2.38;;;23.70;65.80;;;;;;20746011;28;20042;-74
2021/07/27 10:58:43;;;;;;;3.03;2.35;;;23.70;65.70;;;;;;20696952;28;20030;-73
2021/07/27 11:08:44;;;;;;;3.30;2.25;;;23.70;65.70;;;;;;20696161;28;20034;-74
2021/07/27 11:18:44;;;;;;;3.53;2.65;;;23.70;65.60;;;;;;20710907;28;20081;-74
2021/07/27 11:28:45;;;;;;;4.20;2.40;;;23.80;65.70;;;;;;20695496;28;20068;-74
2021/07/27 11:38:45;;;;;;;3.40;2.40;;;23.70;65.50;;;;;;20744027;28;20058;-74
2021/07/27 11:48:53;;;;;;;3.55;2.92;;;23.70;65.10;;;;;;20710846;28;20057;-76
2021/07/27 11:59:00;;;;;;;4.80;2.78;;;23.70;64.90;;;;;;20712958;28;20092;-76
2021/07/27 12:09:01;;;;;;;2.67;2.20;;;23.90;64.90;;;;;;20727705;28;20120;-77
2021/07/27 12:19:02;;;;;;;3.80;2.55;;;23.70;65.50;;;;;;20708945;28;20054;-82
2021/07/27 12:29:03;;;;;;;4.28;2.28;;;23.70;64.90;;;;;;20666810;28;20118;-78
2021/07/27 12:39:04;;;;;;;3.00;2.50;;;23.70;64.90;;;;;;20664586;28;20211;-78
2021/07/27 12:49:05;;;;;;;3.33;2.55;;;23.70;64.80;;;;;;20738981;28;20128;-79
2021/07/27 12:59:06;;;;;;;3.63;2.87;;;23.80;64.80;;;;;;20736514;28;20508;-79
2021/07/27 13:09:07;;;;;;;3.83;2.70;;;23.80;64.60;;;;;;20721091;28;20164;-79
2021/07/27 13:19:07;;;;;;;2.70;2.35;;;23.80;64.70;;;;;;20719210;28;20116;-78
2021/07/27 13:29:08;;;;;;;3.55;2.60;;;23.80;64.60;;;;;;20734752;28;20038;-78
2021/07/27 13:39:08;;;;;;;3.55;2.58;;;23.90;64.40;;;;;;20749138;28;20042;-78
2021/07/27 13:49:09;;;;;;;4.80;3.03;;;23.90;64.00;;;;;;20734127;28;20056;-77
2021/07/27 13:59:10;;;;;;;3.55;2.60;;;23.90;63.80;;;;;;20731484;28;20037;-78
2021/07/27 14:09:10;;;;;;;3.50;2.67;;;24.00;63.90;;;;;;20745845;28;20034;-78
2021/07/27 14:19:11;;;;;;;3.10;2.40;;;24.00;63.80;;;;;;20745376;28;20041;-78
2021/07/27 14:29:11;;;;;;;3.40;2.50;;;24.10;63.70;;;;;;20727715;28;20038;-77
2021/07/27 14:39:12;;;;;;;2.83;2.40;;;24.10;63.70;;;;;;20743026;28;20029;-77
2021/07/27 14:49:13;;;;;;;3.90;3.13;;;24.10;63.50;;;;;;20709526;28;20045;-78
2021/07/27 14:59:15;;;;;;;3.65;2.65;;;24.20;64.00;;;;;;20710005;28;20042;-78
2021/07/27 15:09:15;;;;;;;3.83;2.75;;;24.20;63.30;;;;;;20709787;28;20436;-78
2021/07/27 15:19:16;;;;;;;3.85;2.83;;;24.30;63.20;;;;;;20724673;28;20053;-77
2021/07/27 15:29:16;;;;;;;5.07;2.70;;;24.40;63.00;;;;;;20705867;28;20030;-73
2021/07/27 15:39:17;;;;;;;3.78;2.45;;;24.50;63.00;;;;;;20708319;28;20034;-74
2021/07/27 15:49:19;;;;;;;3.72;2.78;;;24.60;63.00;;;;;;20708555;28;20125;-73
2021/07/27 15:59:20;;;;;;;4.85;3.17;;;24.70;62.90;;;;;;20723683;28;20038;-75
2021/07/27 16:09:20;;;;;;;3.80;2.65;;;24.70;62.60;;;;;;20723492;28;20384;-72
2021/07/27 16:19:21;;;;;;;4.03;2.78;;;24.80;62.40;;;;;;20722813;28;20046;-73
2021/07/27 16:29:22;;;;;;;4.88;3.35;;;24.80;62.30;;;;;;20706470;28;20233;-71
2021/07/27 16:39:22;;;;;;;6.32;3.13;;;24.90;62.10;;;;;;20721915;28;20049;-73
2021/07/27 16:49:23;;;;;;;3.90;3.35;;;24.90;61.50;;;;;;20705720;28;20030;-76
2021/07/27 16:59:23;;;;;;;4.35;3.17;;;25.00;60.60;;;;;;20721791;28;20046;-77
2021/07/27 17:09:24;;;;;;;6.88;3.13;;;25.00;60.40;;;;;;20720798;28;20364;-81
2021/07/27 17:19:25;;;;;;;3.80;2.87;;;25.00;60.50;;;;;;20719871;28;20145;-79
2021/07/27 17:29:25;;;;;;;3.85;3.00;;;25.00;60.60;;;;;;20719442;28;20331;-73
2021/07/27 17:39:26;;;;;;;4.13;3.30;;;24.90;60.90;;;;;;20733798;28;20037;-75
2021/07/27 17:49:26;;;;;;;4.20;3.05;;;24.90;61.20;;;;;;20717497;28;20057;-73
2021/07/27 17:59:27;;;;;;;4.00;3.20;;;24.80;61.40;;;;;;20732440;28;20429;-75
2021/07/27 18:09:28;;;;;;;3.50;2.55;;;24.80;61.60;;;;;;20731906;28;20552;-74
2021/07/27 18:19:29;;;;;;;4.55;3.67;;;24.70;61.80;;;;;;20747357;28;20037;-74
2021/07/27 18:29:29;;;;;;;5.05;3.50;;;24.70;62.10;;;;;;20715091;28;20044;-74
2021/07/27 18:39:30;;;;;;;4.30;3.33;;;24.60;62.40;;;;;;20712945;28;20128;-76
2021/07/27 18:49:30;;;;;;;8.20;3.05;;;24.60;62.70;;;;;;20713175;28;20040;-75
2021/07/27 18:59:31;;;;;;;4.23;3.07;;;24.50;63.00;;;;;;20713641;28;20106;-79
2021/07/27 19:09:32;;;;;;;4.57;2.97;;;24.40;63.40;;;;;;20695586;28;20065;-75
2021/07/27 19:19:32;;;;;;;3.90;2.97;;;24.40;63.80;;;;;;20690810;28;20056;-77
2021/07/27 19:29:33;;;;;;;4.70;3.45;;;24.30;63.90;;;;;;20720859;28;20022;-77
2021/07/27 19:39:35;;;;;;;3.75;2.95;;;24.30;64.10;;;;;;20722687;28;20050;-77
2021/07/27 19:59:42;;;;;;;5.40;3.00;;;24.20;64.40;;;;;;20655097;28;20046;-78
2021/07/27 20:09:42;;;;;;;3.83;3.03;;;24.20;64.60;;;;;;20666953;28;20088;-78
2021/07/27 20:19:43;;;;;;;4.53;2.92;;;24.20;64.70;;;;;;20722503;28;20307;-78
2021/07/27 20:29:44;;;;;;;4.15;3.10;;;24.20;64.90;;;;;;20706707;28;20117;-77
2021/07/27 20:39:44;;;;;;;5.13;2.83;;;24.10;64.90;;;;;;20733088;28;20034;-73
2021/07/27 20:49:45;;;;;;;3.60;2.45;;;24.10;65.00;;;;;;20702413;28;20109;-73
2021/07/27 20:59:45;;;;;;;4.57;3.13;;;24.10;65.10;;;;;;20703561;28;20631;-73
2021/07/27 21:09:46;;;;;;;3.60;2.80;;;24.10;65.20;;;;;;20753668;28;20364;-73
2021/07/27 21:19:46;;;;;;;4.82;2.47;;;24.10;65.20;;;;;;20753332;28;20096;-73
2021/07/27 21:29:47;;;;;;;3.75;3.20;;;24.00;65.30;;;;;;20736123;28;20072;-73
2021/07/27 21:39:47;;;;;;;5.20;2.83;;;24.10;65.40;;;;;;20751516;28;20156;-73
2021/07/27 21:49:48;;;;;;;4.57;3.22;;;24.10;65.50;;;;;;20735583;28;20531;-73
2021/07/27 21:59:49;;;;;;;4.20;3.30;;;24.00;65.50;;;;;;20717000;28;20485;-73
2021/07/27 22:09:49;;;;;;;4.03;2.83;;;24.00;65.50;;;;;;20749791;28;20472;-73
2021/07/27 22:19:50;;;;;;;4.22;3.22;;;24.00;65.60;;;;;;20748463;28;20044;-73
2021/07/27 22:29:51;;;;;;;4.22;3.03;;;24.00;65.60;;;;;;20715412;28;20393;-73
2021/07/27 22:39:52;;;;;;;3.28;2.70;;;24.00;65.60;;;;;;20714763;28;20034;-72
2021/07/27 22:49:53;;;;;;;6.50;2.60;;;23.90;65.60;;;;;;20714351;28;20038;-73
2021/07/27 22:59:53;;;;;;;5.03;2.85;;;23.90;65.60;;;;;;20713622;28;20065;-73
2021/07/27 23:09:54;;;;;;;3.42;2.63;;;23.90;65.60;;;;;;20695998;28;20487;-73
2021/07/27 23:19:54;;;;;;;2.72;2.33;;;23.90;65.70;;;;;;20711789;28;20169;-72
2021/07/27 23:29:55;;;;;;;3.45;2.45;;;23.90;65.70;;;;;;20726925;28;20030;-73
2021/07/27 23:39:56;;;;;;;4.18;3.03;;;23.90;65.80;;;;;;20744812;28;20034;-73
2021/07/27 23:49:56;;;;;;;3.50;2.50;;;23.80;65.70;;;;;;20742126;28;20030;-73
2021/07/27 23:59:57;;;;;;;4.13;2.70;;;23.90;65.80;;;;;;20726407;28;20041;-73
